createdAt,value
2023-03-28T00:00:51.497Z,0.00
2023-03-28T00:01:51.347Z,0.00
2023-03-28T00:02:51.379Z,0.00
2023-03-28T00:03:51.388Z,0.00
2023-03-28T00:04:51.315Z,0.00
2023-03-28T00:05:51.400Z,0.00
2023-03-28T00:06:51.390Z,0.00
2023-03-28T00:07:51.266Z,0.00
2023-03-28T00:08:51.284Z,0.00
2023-03-28T00:09:51.295Z,0.00
2023-03-28T00:10:51.138Z,0.00
2023-03-28T00:11:51.331Z,0.00
2023-03-28T00:12:51.175Z,0.00
2023-03-28T00:13:51.162Z,0.00
2023-03-28T00:14:51.239Z,0.00
2023-03-28T00:15:51.273Z,0.00
2023-03-28T00:16:51.166Z,0.00
2023-03-28T00:17:51.276Z,0.00
2023-03-28T00:18:51.253Z,0.00
2023-03-28T00:19:51.172Z,0.00
2023-03-28T00:20:51.237Z,0.00
2023-03-28T00:21:51.447Z,0.00
2023-03-28T00:22:51.125Z,0.00
2023-03-28T00:23:51.173Z,0.00
2023-03-28T00:24:51.169Z,0.00
2023-03-28T00:25:51.154Z,0.00
2023-03-28T00:26:51.162Z,0.00
2023-03-28T00:27:51.144Z,0.00
2023-03-28T00:28:51.122Z,0.00
2023-03-28T00:29:51.095Z,0.00
2023-03-28T00:30:51.149Z,0.00
2023-03-28T00:31:51.226Z,0.00
2023-03-28T00:32:51.028Z,0.00
2023-03-28T00:33:51.039Z,0.00
2023-03-28T00:34:50.848Z,0.00
2023-03-28T00:35:50.970Z,0.00
2023-03-28T00:36:50.977Z,0.00
2023-03-28T00:37:51.064Z,0.00
2023-03-28T00:38:51.000Z,0.00
2023-03-28T00:39:51.007Z,0.00
2023-03-28T00:40:51.010Z,0.00
2023-03-28T00:41:50.940Z,0.00
2023-03-28T00:42:50.940Z,0.00
2023-03-28T00:43:51.016Z,0.00
2023-03-28T00:44:51.019Z,0.00
2023-03-28T00:45:59.191Z,0.00
2023-03-28T00:46:50.980Z,0.00
2023-03-28T00:47:50.944Z,0.00
2023-03-28T00:48:50.999Z,0.00
2023-03-28T00:49:50.938Z,0.00
2023-03-28T00:50:50.938Z,0.00
2023-03-28T00:51:50.939Z,0.00
2023-03-28T00:52:50.868Z,0.00
2023-03-28T00:53:50.867Z,0.00
2023-03-28T00:54:50.957Z,0.00
2023-03-28T00:55:50.844Z,0.00
2023-03-28T00:56:50.952Z,0.00
2023-03-28T00:57:50.853Z,0.00
2023-03-28T00:58:50.752Z,0.00
2023-03-28T00:59:50.905Z,0.00
2023-03-28T01:00:50.804Z,0.00
2023-03-28T01:01:50.845Z,0.00
2023-03-28T01:02:50.890Z,0.00
2023-03-28T01:03:50.815Z,0.00
2023-03-28T01:04:50.763Z,0.00
2023-03-28T01:05:50.706Z,0.00
2023-03-28T01:06:50.724Z,0.00
2023-03-28T01:07:50.648Z,0.00
2023-03-28T01:08:50.639Z,0.00
2023-03-28T01:09:50.604Z,0.00
2023-03-28T01:10:50.691Z,0.00
2023-03-28T01:11:50.669Z,0.00
2023-03-28T01:12:50.663Z,0.00
2023-03-28T01:13:50.730Z,0.00
2023-03-28T01:14:50.697Z,0.00
2023-03-28T01:15:50.700Z,0.00
2023-03-28T01:16:50.612Z,0.00
2023-03-28T01:17:50.450Z,0.00
2023-03-28T01:18:50.528Z,0.00
2023-03-28T01:19:50.523Z,0.00
2023-03-28T01:20:50.661Z,0.00
2023-03-28T01:21:50.502Z,0.00
2023-03-28T01:22:56.748Z,0.00
2023-03-28T01:23:50.528Z,0.00
2023-03-28T01:24:50.539Z,0.00
2023-03-28T01:25:50.537Z,0.00
2023-03-28T01:26:50.471Z,0.00
2023-03-28T01:27:50.546Z,0.00
2023-03-28T01:28:50.473Z,0.00
2023-03-28T01:29:50.299Z,0.00
2023-03-28T01:30:50.432Z,0.00
2023-03-28T01:31:50.465Z,0.00
2023-03-28T01:32:50.517Z,0.00
2023-03-28T01:33:50.385Z,0.00
2023-03-28T01:34:50.382Z,0.00
2023-03-28T01:35:50.438Z,0.00
2023-03-28T01:36:50.407Z,0.00
2023-03-28T01:37:50.212Z,0.00
2023-03-28T01:38:50.318Z,0.00
2023-03-28T01:39:50.327Z,0.00
2023-03-28T01:40:50.344Z,0.00
2023-03-28T01:41:50.372Z,0.00
2023-03-28T01:42:50.379Z,0.00
2023-03-28T01:43:50.301Z,0.00
2023-03-28T01:44:50.308Z,0.00
2023-03-28T01:45:50.338Z,0.00
2023-03-28T01:46:50.306Z,0.00
2023-03-28T01:47:50.310Z,0.00
2023-03-28T01:48:50.356Z,0.00
2023-03-28T01:49:50.263Z,0.00
2023-03-28T01:50:50.255Z,0.00
2023-03-28T01:51:50.227Z,0.00
2023-03-28T01:52:50.216Z,0.00
2023-03-28T01:53:50.287Z,0.00
2023-03-28T01:54:50.222Z,0.00
2023-03-28T01:55:50.211Z,0.00
2023-03-28T01:56:50.241Z,0.00
2023-03-28T01:57:50.244Z,0.00
2023-03-28T01:58:50.304Z,0.00
2023-03-28T01:59:50.189Z,0.00
2023-03-28T02:00:50.184Z,0.00
2023-03-28T02:01:50.141Z,0.00
2023-03-28T02:02:50.200Z,0.00
2023-03-28T02:03:50.205Z,0.00
2023-03-28T02:04:50.208Z,0.00
2023-03-28T02:05:50.108Z,0.00
2023-03-28T02:06:50.042Z,0.00
2023-03-28T02:07:50.046Z,0.00
2023-03-28T02:08:50.040Z,0.00
2023-03-28T02:09:50.132Z,0.00
2023-03-28T02:10:50.073Z,0.00
2023-03-28T02:11:50.103Z,0.00
2023-03-28T02:12:50.021Z,0.00
2023-03-28T02:13:50.040Z,0.00
2023-03-28T02:14:50.048Z,0.00
2023-03-28T02:15:50.132Z,0.00
2023-03-28T02:16:50.252Z,0.00
2023-03-28T02:17:50.059Z,0.00
2023-03-28T02:18:50.046Z,0.00
2023-03-28T02:19:50.007Z,0.00
2023-03-28T02:20:50.088Z,0.00
2023-03-28T02:21:50.078Z,0.00
2023-03-28T02:22:50.002Z,0.00
2023-03-28T02:23:49.868Z,0.00
2023-03-28T02:24:49.879Z,0.00
2023-03-28T02:25:50.037Z,0.00
2023-03-28T02:26:49.964Z,0.00
2023-03-28T02:27:49.956Z,0.00
2023-03-28T02:28:49.852Z,0.00
2023-03-28T02:29:49.932Z,0.00
2023-03-28T02:30:49.902Z,0.00
2023-03-28T02:31:50.014Z,0.00
2023-03-28T02:32:49.955Z,0.00
2023-03-28T02:33:49.851Z,0.00
2023-03-28T02:34:49.839Z,0.00
2023-03-28T02:35:49.836Z,0.00
2023-03-28T02:36:49.906Z,0.00
2023-03-28T02:37:49.821Z,0.00
2023-03-28T02:38:49.830Z,0.00
2023-03-28T02:39:49.735Z,0.00
2023-03-28T02:40:49.872Z,0.00
2023-03-28T02:41:49.763Z,0.00
2023-03-28T02:42:49.696Z,0.00
2023-03-28T02:43:49.784Z,0.00
2023-03-28T02:44:49.694Z,0.00
2023-03-28T02:45:49.846Z,0.00
2023-03-28T02:46:49.766Z,0.00
2023-03-28T02:47:49.811Z,0.00
2023-03-28T02:48:49.659Z,0.00
2023-03-28T02:49:50.764Z,0.00
2023-03-28T02:50:49.647Z,0.00
2023-03-28T02:51:49.651Z,0.00
2023-03-28T02:52:49.732Z,0.00
2023-03-28T02:53:49.658Z,0.00
2023-03-28T02:54:49.667Z,0.00
2023-03-28T02:55:49.590Z,0.00
2023-03-28T02:56:49.635Z,0.00
2023-03-28T02:57:49.622Z,0.00
2023-03-28T02:58:49.674Z,0.00
2023-03-28T02:59:49.588Z,0.00
2023-03-28T03:00:49.584Z,0.00
2023-03-28T03:01:49.594Z,0.00
2023-03-28T03:02:49.601Z,0.00
2023-03-28T03:03:49.578Z,0.00
2023-03-28T03:04:49.562Z,0.00
2023-03-28T03:05:49.492Z,0.00
2023-03-28T03:06:49.502Z,0.00
2023-03-28T03:07:49.507Z,0.00
2023-03-28T03:08:49.456Z,0.00
2023-03-28T03:09:49.545Z,0.00
2023-03-28T03:10:49.551Z,0.00
2023-03-28T03:11:49.478Z,0.00
2023-03-28T03:12:49.408Z,0.00
2023-03-28T03:13:49.395Z,0.00
2023-03-28T03:14:49.288Z,0.00
2023-03-28T03:15:49.328Z,0.00
2023-03-28T03:16:49.467Z,0.00
2023-03-28T03:17:49.485Z,0.00
2023-03-28T03:18:49.408Z,0.00
2023-03-28T03:19:49.342Z,0.00
2023-03-28T03:20:49.363Z,0.00
2023-03-28T03:21:49.211Z,0.00
2023-03-28T03:22:49.404Z,0.00
2023-03-28T03:23:49.312Z,0.00
2023-03-28T03:24:49.320Z,0.00
2023-03-28T03:25:49.339Z,0.00
2023-03-28T03:26:49.345Z,0.00
2023-03-28T03:27:49.276Z,0.00
2023-03-28T03:28:49.294Z,0.00
2023-03-28T03:29:49.130Z,0.00
2023-03-28T03:30:49.259Z,0.00
2023-03-28T03:31:49.440Z,0.00
2023-03-28T03:32:49.308Z,0.00
2023-03-28T03:33:49.236Z,0.00
2023-03-28T03:34:49.250Z,0.00
2023-03-28T03:35:49.379Z,0.00
2023-03-28T03:36:49.260Z,0.00
2023-03-28T03:37:49.244Z,0.00
2023-03-28T03:38:49.256Z,0.00
2023-03-28T03:39:49.209Z,0.00
2023-03-28T03:40:49.216Z,0.00
2023-03-28T03:41:49.236Z,0.00
2023-03-28T03:42:49.160Z,0.00
2023-03-28T03:43:49.216Z,0.00
2023-03-28T03:44:49.101Z,0.00
2023-03-28T03:45:49.183Z,0.00
2023-03-28T03:46:49.182Z,0.00
2023-03-28T03:47:49.022Z,0.00
2023-03-28T03:48:49.141Z,0.00
2023-03-28T03:49:48.912Z,0.00
2023-03-28T03:50:48.936Z,0.00
2023-03-28T03:51:48.977Z,0.00
2023-03-28T03:52:48.876Z,0.00
2023-03-28T03:53:48.857Z,0.00
2023-03-28T03:54:48.914Z,0.00
2023-03-28T03:55:48.885Z,0.00
2023-03-28T03:56:48.917Z,0.00
2023-03-28T03:57:48.971Z,0.00
2023-03-28T03:58:48.846Z,0.00
2023-03-28T03:59:48.969Z,0.00
2023-03-28T04:00:49.026Z,0.00
2023-03-28T04:01:48.921Z,0.00
2023-03-28T04:02:48.994Z,0.00
2023-03-28T04:03:49.012Z,0.00
2023-03-28T04:04:49.001Z,0.00
2023-03-28T04:05:48.912Z,0.00
2023-03-28T04:06:48.945Z,0.00
2023-03-28T04:07:48.804Z,0.00
2023-03-28T04:08:48.866Z,0.00
2023-03-28T04:09:48.892Z,0.00
2023-03-28T04:10:48.922Z,0.00
2023-03-28T04:11:49.056Z,0.00
2023-03-28T04:12:48.830Z,0.00
2023-03-28T04:13:48.855Z,0.00
2023-03-28T04:14:48.878Z,0.00
2023-03-28T04:15:48.849Z,0.00
2023-03-28T04:16:48.780Z,0.00
2023-03-28T04:17:48.808Z,0.00
2023-03-28T04:18:48.632Z,0.00
2023-03-28T04:19:48.765Z,0.00
2023-03-28T04:20:48.869Z,0.00
2023-03-28T04:21:48.735Z,0.00
2023-03-28T04:22:48.764Z,0.00
2023-03-28T04:23:48.804Z,0.00
2023-03-28T04:24:48.770Z,0.00
2023-03-28T04:25:48.797Z,0.00
2023-03-28T04:26:48.604Z,0.00
2023-03-28T04:27:48.766Z,0.00
2023-03-28T04:28:48.796Z,0.00
2023-03-28T04:29:48.653Z,0.00
2023-03-28T04:30:48.712Z,0.00
2023-03-28T04:31:48.754Z,0.00
2023-03-28T04:32:48.528Z,0.00
2023-03-28T04:33:48.662Z,0.00
2023-03-28T04:34:48.615Z,0.00
2023-03-28T04:35:48.659Z,0.00
2023-03-28T04:36:48.585Z,0.00
2023-03-28T04:37:48.499Z,0.00
2023-03-28T04:38:48.466Z,0.00
2023-03-28T04:39:48.408Z,1.00
2023-03-28T04:40:48.411Z,1.00
2023-03-28T04:41:48.457Z,1.00
2023-03-28T04:42:48.408Z,1.00
2023-03-28T04:43:48.398Z,1.00
2023-03-28T04:44:48.382Z,2.00
2023-03-28T04:45:48.354Z,2.00
2023-03-28T04:46:48.489Z,1.00
2023-03-28T04:47:48.387Z,1.00
2023-03-28T04:48:48.555Z,2.00
2023-03-28T04:49:48.604Z,1.00
2023-03-28T04:50:48.330Z,1.00
2023-03-28T04:51:48.409Z,4.00
2023-03-28T04:52:48.450Z,5.00
2023-03-28T04:53:48.471Z,5.00
2023-03-28T04:54:48.391Z,3.00
2023-03-28T04:55:48.365Z,7.00
2023-03-28T04:56:48.295Z,8.00
2023-03-28T04:57:48.386Z,11.00
2023-03-28T04:58:48.405Z,11.00
2023-03-28T04:59:48.322Z,15.00
2023-03-28T05:00:48.313Z,20.00
2023-03-28T05:01:48.230Z,21.00
2023-03-28T05:02:48.256Z,21.00
2023-03-28T05:03:48.423Z,28.00
2023-03-28T05:04:48.319Z,31.00
2023-03-28T05:05:48.317Z,34.00
2023-03-28T05:06:48.258Z,38.00
2023-03-28T05:07:48.285Z,50.00
2023-03-28T05:08:48.311Z,59.00
2023-03-28T05:09:48.264Z,76.00
2023-03-28T05:10:48.223Z,90.00
2023-03-28T05:11:48.253Z,102.00
2023-03-28T05:12:48.221Z,116.00
2023-03-28T05:13:48.248Z,141.00
2023-03-28T05:14:48.035Z,173.00
2023-03-28T05:15:48.222Z,195.00
2023-03-28T05:16:48.246Z,221.00
2023-03-28T05:17:48.270Z,251.00
2023-03-28T05:18:48.079Z,283.00
2023-03-28T05:19:48.260Z,307.00
2023-03-28T05:20:48.131Z,332.00
2023-03-28T05:21:48.155Z,355.00
2023-03-28T05:22:48.065Z,381.00
2023-03-28T05:23:51.804Z,405.00
2023-03-28T05:24:47.917Z,432.00
2023-03-28T05:25:48.151Z,447.00
2023-03-28T05:26:48.018Z,474.00
2023-03-28T05:27:47.939Z,490.00
2023-03-28T05:28:48.069Z,504.00
2023-03-28T05:29:47.901Z,521.00
2023-03-28T05:30:48.106Z,576.00
2023-03-28T05:31:48.003Z,619.00
2023-03-28T05:32:47.914Z,634.00
2023-03-28T05:33:48.019Z,652.00
2023-03-28T05:34:47.973Z,653.00
2023-03-28T05:35:48.008Z,628.00
2023-03-28T05:36:47.941Z,591.00
2023-03-28T05:37:47.777Z,615.00
2023-03-28T05:38:47.759Z,610.00
2023-03-28T05:39:47.762Z,569.00
2023-03-28T05:40:47.943Z,537.00
2023-03-28T05:41:48.014Z,528.00
2023-03-28T05:42:47.919Z,581.00
2023-03-28T05:43:47.853Z,581.00
2023-03-28T05:44:47.791Z,603.00
2023-03-28T05:45:47.897Z,627.00
2023-03-28T05:46:47.712Z,605.00
2023-03-28T05:47:47.866Z,573.00
2023-03-28T05:48:49.811Z,597.00
2023-03-28T05:49:47.839Z,661.00
2023-03-28T05:50:47.833Z,694.00
2023-03-28T05:51:47.726Z,732.00
2023-03-28T05:52:47.871Z,778.00
2023-03-28T05:53:47.788Z,862.00
2023-03-28T05:54:50.557Z,942.00
2023-03-28T05:55:47.776Z,1051.00
2023-03-28T05:56:47.827Z,1159.00
2023-03-28T05:57:47.960Z,1243.00
2023-03-28T05:58:47.765Z,1447.00
2023-03-28T05:59:47.772Z,1558.00
2023-03-28T06:00:47.558Z,1585.00
2023-03-28T06:01:47.724Z,1667.00
2023-03-28T06:02:47.843Z,1813.00
2023-03-28T06:03:47.718Z,1890.00
2023-03-28T06:04:47.746Z,1999.00
2023-03-28T06:05:47.630Z,2019.00
2023-03-28T06:06:47.742Z,2037.00
2023-03-28T06:07:47.590Z,2032.00
2023-03-28T06:08:47.625Z,2069.00
2023-03-28T06:09:47.547Z,2430.00
2023-03-28T06:10:47.635Z,1316.00
2023-03-28T06:11:47.638Z,3396.00
2023-03-28T06:12:47.549Z,12154.00
2023-03-28T06:13:47.529Z,30398.00
2023-03-28T06:14:47.533Z,15979.00
2023-03-28T06:15:47.541Z,6429.00
2023-03-28T06:16:47.648Z,4600.00
2023-03-28T06:17:47.499Z,3055.00
2023-03-28T06:18:47.501Z,2910.00
2023-03-28T06:19:47.617Z,3846.00
2023-03-28T06:20:47.593Z,2970.00
2023-03-28T06:21:47.442Z,3955.00
2023-03-28T06:22:47.443Z,5044.00
2023-03-28T06:23:47.431Z,4689.00
2023-03-28T06:24:47.411Z,5009.00
2023-03-28T06:25:47.480Z,3599.00
2023-03-28T06:26:47.455Z,3640.00
2023-03-28T06:27:47.420Z,5095.00
2023-03-28T06:28:47.404Z,4875.00
2023-03-28T06:29:47.386Z,6406.00
2023-03-28T06:30:47.444Z,9164.00
2023-03-28T06:31:47.406Z,2575.00
2023-03-28T06:32:47.413Z,10983.00
2023-03-28T06:33:47.386Z,2735.00
2023-03-28T06:34:47.314Z,15054.00
2023-03-28T06:35:47.424Z,6346.00
2023-03-28T06:36:47.421Z,6348.00
2023-03-28T06:37:47.339Z,6842.00
2023-03-28T06:38:47.346Z,5727.00
2023-03-28T06:39:47.386Z,3226.00
2023-03-28T06:40:47.369Z,16153.00
2023-03-28T06:41:47.266Z,6173.00
2023-03-28T06:42:47.262Z,6483.00
2023-03-28T06:43:47.247Z,4398.00
2023-03-28T06:44:47.235Z,4002.00
2023-03-28T06:45:47.285Z,4123.00
2023-03-28T06:46:47.323Z,4308.00
2023-03-28T06:47:47.255Z,4270.00
2023-03-28T06:48:47.204Z,7412.00
2023-03-28T06:49:47.209Z,5177.00
2023-03-28T06:50:47.196Z,5418.00
2023-03-28T06:51:47.252Z,2878.00
2023-03-28T06:52:47.150Z,17053.00
2023-03-28T06:53:47.113Z,5933.00
2023-03-28T06:54:48.495Z,79729.00
2023-03-28T06:55:47.129Z,70261.00
2023-03-28T06:56:47.145Z,32730.00
2023-03-28T06:57:47.150Z,23672.00
2023-03-28T06:58:47.064Z,5975.00
2023-03-28T06:59:47.087Z,78823.00
2023-03-28T07:00:47.057Z,79312.00
2023-03-28T07:01:47.098Z,74747.00
2023-03-28T07:02:47.236Z,83003.00
2023-03-28T07:03:48.703Z,81442.00
2023-03-28T07:04:47.046Z,75071.00
2023-03-28T07:05:47.030Z,82584.00
2023-03-28T07:06:47.080Z,81727.00
2023-03-28T07:07:47.106Z,81091.00
2023-03-28T07:08:47.128Z,80779.00
2023-03-28T07:09:47.010Z,80940.00
2023-03-28T07:10:46.992Z,81405.00
2023-03-28T07:11:46.978Z,80011.00
2023-03-28T07:12:46.944Z,79034.00
2023-03-28T07:13:46.915Z,82546.00
2023-03-28T07:14:47.010Z,79885.00
2023-03-28T07:15:46.988Z,82044.00
2023-03-28T07:16:46.915Z,80932.00
2023-03-28T07:17:46.966Z,77746.00
2023-03-28T07:18:46.988Z,81282.00
2023-03-28T07:19:46.996Z,80237.00
2023-03-28T07:20:51.936Z,81305.00
2023-03-28T07:21:46.822Z,74405.00
2023-03-28T07:22:46.816Z,69383.00
2023-03-28T07:23:46.849Z,31696.00
2023-03-28T07:24:46.938Z,19887.00
2023-03-28T07:25:46.782Z,11768.00
2023-03-28T07:26:46.853Z,10279.00
2023-03-28T07:27:46.865Z,80861.00
2023-03-28T07:28:46.824Z,81096.00
2023-03-28T07:29:46.867Z,80373.00
2023-03-28T07:30:46.724Z,81832.00
2023-03-28T07:31:46.790Z,82493.00
2023-03-28T07:32:55.673Z,80848.00
2023-03-28T07:33:46.771Z,80854.00
2023-03-28T07:34:46.761Z,82217.00
2023-03-28T07:35:46.905Z,80107.00
2023-03-28T07:36:46.682Z,81861.00
2023-03-28T07:37:46.719Z,78787.00
2023-03-28T07:38:48.576Z,82219.00
2023-03-28T07:39:46.701Z,81402.00
2023-03-28T07:40:46.676Z,81535.00
2023-03-28T07:41:46.752Z,81825.00
2023-03-28T07:42:46.828Z,78661.00
2023-03-28T07:43:46.490Z,81563.00
2023-03-28T07:44:46.593Z,81060.00
2023-03-28T07:45:46.702Z,80918.00
2023-03-28T07:46:46.505Z,82177.00
2023-03-28T07:47:46.639Z,82602.00
2023-03-28T07:48:46.543Z,80970.00
2023-03-28T07:49:46.500Z,81201.00
2023-03-28T07:50:46.456Z,81504.00
2023-03-28T07:51:46.607Z,79597.00
2023-03-28T07:52:46.404Z,79756.00
2023-03-28T07:53:46.551Z,82081.00
2023-03-28T07:54:46.355Z,79602.00
2023-03-28T07:55:54.294Z,79341.00
2023-03-28T07:56:46.467Z,79562.00
2023-03-28T07:57:46.369Z,78013.00
2023-03-28T07:58:46.301Z,79663.00
2023-03-28T07:59:46.378Z,81340.00
2023-03-28T08:00:46.445Z,80883.00
2023-03-28T08:01:46.587Z,77432.00
2023-03-28T08:02:46.450Z,77370.00
2023-03-28T08:03:46.632Z,68196.00
2023-03-28T08:04:46.294Z,10502.00
2023-03-28T08:05:46.484Z,63855.00
2023-03-28T08:06:46.590Z,21265.00
2023-03-28T08:07:46.309Z,15133.00
2023-03-28T08:08:46.250Z,15871.00
2023-03-28T08:09:46.331Z,12190.00
2023-03-28T08:10:46.347Z,12186.00
2023-03-28T08:11:46.345Z,9270.00
2023-03-28T08:12:46.368Z,12225.00
2023-03-28T08:13:46.449Z,11128.00
2023-03-28T08:14:46.251Z,12522.00
2023-03-28T08:15:46.223Z,11139.00
2023-03-28T08:16:46.198Z,12689.00
2023-03-28T08:17:46.410Z,13070.00
2023-03-28T08:18:50.385Z,10982.00
2023-03-28T08:19:46.126Z,11239.00
2023-03-28T08:20:46.081Z,11557.00
2023-03-28T08:21:46.279Z,11100.00
2023-03-28T08:22:46.248Z,8857.00
2023-03-28T08:23:46.155Z,10470.00
2023-03-28T08:24:46.196Z,10038.00
2023-03-28T08:25:46.226Z,9601.00
2023-03-28T08:26:48.108Z,9391.00
2023-03-28T08:27:46.250Z,9284.00
2023-03-28T08:28:46.270Z,9322.00
2023-03-28T08:29:46.200Z,9237.00
2023-03-28T08:30:46.161Z,9177.00
2023-03-28T08:31:46.221Z,9125.00
2023-03-28T08:32:48.719Z,9024.00
2023-03-28T08:33:46.178Z,8803.00
2023-03-28T08:34:46.127Z,8559.00
2023-03-28T08:35:46.227Z,8422.00
2023-03-28T08:36:46.035Z,8327.00
2023-03-28T08:37:46.125Z,8319.00
2023-03-28T08:38:46.070Z,8245.00
2023-03-28T08:39:46.129Z,8229.00
2023-03-28T08:40:45.894Z,8256.00
2023-03-28T08:41:45.978Z,8116.00
2023-03-28T08:42:46.019Z,8559.00
2023-03-28T08:43:46.061Z,7371.00
2023-03-28T08:44:48.329Z,3486.00
2023-03-28T08:45:45.974Z,8466.00
2023-03-28T08:46:46.067Z,8491.00
2023-03-28T08:47:45.980Z,8160.00
2023-03-28T08:48:45.952Z,8291.00
2023-03-28T08:49:45.961Z,8380.00
2023-03-28T08:50:46.033Z,8250.00
2023-03-28T08:51:45.937Z,8366.00
2023-03-28T08:52:45.905Z,8645.00
2023-03-28T08:53:45.957Z,8791.00
2023-03-28T08:54:46.115Z,8702.00
2023-03-28T08:55:45.810Z,8445.00
2023-03-28T08:56:45.851Z,8734.00
2023-03-28T08:57:45.925Z,9097.00
2023-03-28T08:58:45.891Z,8929.00
2023-03-28T08:59:45.850Z,8243.00
2023-03-28T09:00:45.904Z,5488.00
2023-03-28T09:01:45.957Z,8355.00
2023-03-28T09:02:45.802Z,9127.00
2023-03-28T09:03:45.774Z,9313.00
2023-03-28T09:04:45.915Z,9436.00
2023-03-28T09:05:45.831Z,8651.00
2023-03-28T09:06:45.746Z,7102.00
2023-03-28T09:07:45.953Z,8557.00
2023-03-28T09:08:45.724Z,8641.00
2023-03-28T09:09:45.861Z,8650.00
2023-03-28T09:10:45.707Z,8038.00
2023-03-28T09:11:45.714Z,9459.00
2023-03-28T09:12:45.820Z,9050.00
2023-03-28T09:13:45.755Z,8711.00
2023-03-28T09:14:45.675Z,8583.00
2023-03-28T09:15:45.685Z,8766.00
2023-03-28T09:16:45.825Z,8361.00
2023-03-28T09:17:45.754Z,8199.00
2023-03-28T09:18:45.555Z,8360.00
2023-03-28T09:19:48.864Z,8659.00
2023-03-28T09:20:45.536Z,9067.00
2023-03-28T09:21:45.567Z,7914.00
2023-03-28T09:22:45.568Z,9616.00
2023-03-28T09:23:45.453Z,9086.00
2023-03-28T09:24:45.468Z,7281.00
2023-03-28T09:25:45.477Z,9465.00
2023-03-28T09:26:45.440Z,9520.00
2023-03-28T09:27:45.432Z,9530.00
2023-03-28T09:28:45.487Z,8932.00
2023-03-28T09:29:45.395Z,9945.00
2023-03-28T09:30:45.388Z,11425.00
2023-03-28T09:31:45.468Z,11653.00
2023-03-28T09:32:45.437Z,11447.00
2023-03-28T09:33:45.413Z,10406.00
2023-03-28T09:34:45.590Z,10128.00
2023-03-28T09:35:45.426Z,9709.00
2023-03-28T09:36:48.891Z,8062.00
2023-03-28T09:37:45.378Z,5961.00
2023-03-28T09:38:45.330Z,8751.00
2023-03-28T09:39:45.393Z,10315.00
2023-03-28T09:40:45.348Z,9708.00
2023-03-28T09:41:45.435Z,9614.00
2023-03-28T09:42:45.443Z,11052.00
2023-03-28T09:43:45.384Z,9062.00
2023-03-28T09:44:54.230Z,5966.00
2023-03-28T09:45:45.403Z,6498.00
2023-03-28T09:46:45.382Z,9115.00
2023-03-28T09:47:45.502Z,9006.00
2023-03-28T09:48:45.515Z,9599.00
2023-03-28T09:49:45.440Z,5969.00
2023-03-28T09:50:45.241Z,10186.00
2023-03-28T09:51:45.237Z,6617.00
2023-03-28T09:52:45.270Z,7343.00
2023-03-28T09:53:45.163Z,9617.00
2023-03-28T09:54:45.426Z,7919.00
2023-03-28T09:55:51.612Z,7360.00
2023-03-28T09:56:45.357Z,6354.00
2023-03-28T09:57:45.137Z,6282.00
2023-03-28T09:58:45.116Z,6075.00
2023-03-28T09:59:45.149Z,6129.00
2023-03-28T10:00:45.115Z,6037.00
2023-03-28T10:01:45.127Z,5063.00
2023-03-28T10:02:45.106Z,3355.00
2023-03-28T10:03:45.030Z,11985.00
2023-03-28T10:04:45.061Z,10330.00
2023-03-28T10:05:45.079Z,14223.00
2023-03-28T10:06:45.008Z,27000.00
2023-03-28T10:07:45.036Z,22619.00
2023-03-28T10:08:44.994Z,27365.00
2023-03-28T10:09:45.019Z,15431.00
2023-03-28T10:10:44.936Z,15887.00
2023-03-28T10:11:44.962Z,9235.00
2023-03-28T10:12:45.135Z,5511.00
2023-03-28T10:13:44.925Z,13158.00
2023-03-28T10:14:45.001Z,9511.00
2023-03-28T10:15:45.156Z,8202.00
2023-03-28T10:16:44.988Z,7078.00
2023-03-28T10:17:45.046Z,4558.00
2023-03-28T10:18:45.024Z,8137.00
2023-03-28T10:19:45.018Z,3751.00
2023-03-28T10:20:44.850Z,15514.00
2023-03-28T10:21:44.925Z,6754.00
2023-03-28T10:22:45.071Z,76350.00
2023-03-28T10:23:44.863Z,76233.00
2023-03-28T10:24:44.849Z,76338.00
2023-03-28T10:25:44.923Z,76405.00
2023-03-28T10:26:44.980Z,61137.00
2023-03-28T10:27:44.938Z,12315.00
2023-03-28T10:28:44.981Z,15308.00
2023-03-28T10:29:44.936Z,9936.00
2023-03-28T10:30:44.786Z,8236.00
2023-03-28T10:31:45.017Z,6560.00
2023-03-28T10:32:44.890Z,6298.00
2023-03-28T10:33:45.018Z,6171.00
2023-03-28T10:34:44.879Z,5916.00
2023-03-28T10:35:44.891Z,6215.00
2023-03-28T10:36:44.915Z,5930.00
2023-03-28T10:37:44.852Z,5149.00
2023-03-28T10:38:45.010Z,6039.00
2023-03-28T10:39:44.870Z,9240.00
2023-03-28T10:40:44.872Z,2973.00
2023-03-28T10:41:44.788Z,13543.00
2023-03-28T10:42:44.758Z,76461.00
2023-03-28T10:43:44.787Z,57635.00
2023-03-28T10:44:44.809Z,5390.00
2023-03-28T10:45:44.777Z,5210.00
2023-03-28T10:46:44.827Z,4040.00
2023-03-28T10:47:44.731Z,76616.00
2023-03-28T10:48:44.701Z,75972.00
2023-03-28T10:49:44.790Z,73992.00
2023-03-28T10:50:44.716Z,72130.00
2023-03-28T10:51:44.725Z,71692.00
2023-03-28T10:52:44.662Z,36388.00
2023-03-28T10:53:44.687Z,72787.00
2023-03-28T10:54:44.707Z,72820.00
2023-03-28T10:55:44.639Z,74670.00
2023-03-28T10:56:44.688Z,72649.00
2023-03-28T10:57:44.692Z,58347.00
2023-03-28T10:58:44.625Z,7521.00
2023-03-28T10:59:44.660Z,6314.00
2023-03-28T11:00:44.720Z,5439.00
2023-03-28T11:01:44.640Z,4995.00
2023-03-28T11:02:44.679Z,4813.00
2023-03-28T11:03:44.833Z,4752.00
2023-03-28T11:04:44.604Z,4275.00
2023-03-28T11:05:52.156Z,4109.00
2023-03-28T11:06:44.695Z,4161.00
2023-03-28T11:07:44.525Z,3767.00
2023-03-28T11:08:44.548Z,3755.00
2023-03-28T11:09:44.610Z,3897.00
2023-03-28T11:10:44.530Z,2956.00
2023-03-28T11:11:44.569Z,6213.00
2023-03-28T11:12:54.254Z,3115.00
2023-03-28T11:13:44.495Z,5183.00
2023-03-28T11:14:44.424Z,12341.00
2023-03-28T11:15:44.457Z,15747.00
2023-03-28T11:16:44.549Z,17136.00
2023-03-28T11:17:44.482Z,14197.00
2023-03-28T11:18:44.370Z,8199.00
2023-03-28T11:19:44.439Z,6441.00
2023-03-28T11:20:44.418Z,8315.00
2023-03-28T11:21:44.343Z,9754.00
2023-03-28T11:22:52.262Z,7248.00
2023-03-28T11:23:44.376Z,3780.00
2023-03-28T11:24:44.339Z,12025.00
2023-03-28T11:25:44.360Z,9375.00
2023-03-28T11:26:44.411Z,6388.00
2023-03-28T11:27:44.383Z,6200.00
2023-03-28T11:28:46.598Z,5953.00
2023-03-28T11:29:44.545Z,5635.00
2023-03-28T11:30:44.260Z,5293.00
2023-03-28T11:31:44.321Z,5452.00
2023-03-28T11:32:44.384Z,5092.00
2023-03-28T11:33:44.314Z,4755.00
2023-03-28T11:34:44.242Z,4517.00
2023-03-28T11:35:44.294Z,7179.00
2023-03-28T11:36:44.198Z,6337.00
2023-03-28T11:37:44.241Z,5656.00
2023-03-28T11:38:44.301Z,5149.00
2023-03-28T11:39:44.195Z,4651.00
2023-03-28T11:40:44.173Z,4471.00
2023-03-28T11:41:44.144Z,4418.00
2023-03-28T11:42:44.135Z,4343.00
2023-03-28T11:43:44.200Z,4039.00
2023-03-28T11:44:44.120Z,3869.00
2023-03-28T11:45:50.941Z,4231.00
2023-03-28T11:46:44.208Z,5012.00
2023-03-28T11:47:44.154Z,5436.00
2023-03-28T11:48:44.135Z,5537.00
2023-03-28T11:49:44.157Z,5178.00
2023-03-28T11:50:44.109Z,4999.00
2023-03-28T11:51:44.190Z,5081.00
2023-03-28T11:52:44.174Z,6234.00
2023-03-28T11:53:43.859Z,6798.00
2023-03-28T11:54:43.910Z,6372.00
2023-03-28T11:55:43.918Z,6000.00
2023-03-28T11:56:43.925Z,5631.00
2023-03-28T11:57:43.855Z,5609.00
2023-03-28T11:58:43.836Z,4940.00
2023-03-28T11:59:43.845Z,4307.00
2023-03-28T12:00:43.896Z,3917.00
2023-03-28T12:01:43.801Z,3728.00
2023-03-28T12:02:43.879Z,3653.00
2023-03-28T12:03:43.813Z,3421.00
2023-03-28T12:04:43.768Z,3154.00
2023-03-28T12:05:43.796Z,3094.00
2023-03-28T12:06:52.284Z,3229.00
2023-03-28T12:07:43.774Z,3364.00
2023-03-28T12:08:43.753Z,3250.00
2023-03-28T12:09:43.786Z,3193.00
2023-03-28T12:10:43.797Z,3342.00
2023-03-28T12:11:43.687Z,3651.00
2023-03-28T12:12:43.709Z,4023.00
2023-03-28T12:13:46.200Z,4674.00
2023-03-28T12:14:43.801Z,5181.00
2023-03-28T12:15:43.919Z,6030.00
2023-03-28T12:16:44.004Z,7441.00
2023-03-28T12:17:43.833Z,7798.00
2023-03-28T12:18:43.815Z,7556.00
2023-03-28T12:19:43.741Z,6619.00
2023-03-28T12:20:43.754Z,6623.00
2023-03-28T12:21:43.850Z,6393.00
2023-03-28T12:22:43.710Z,6168.00
2023-03-28T12:23:43.724Z,5752.00
2023-03-28T12:24:43.677Z,5445.00
2023-03-28T12:25:43.704Z,5182.00
2023-03-28T12:26:43.730Z,5002.00
2023-03-28T12:27:43.742Z,4910.00
2023-03-28T12:28:43.765Z,4788.00
2023-03-28T12:29:43.696Z,4736.00
2023-03-28T12:30:43.700Z,4815.00